sensor_id;sensor_type;location;lat;lon;timestamp;temperature;humidity
12720;DHT22;6424;48.520;11.228;2023-02-14T00:01:11;0.40;99.90
12720;DHT22;6424;48.520;11.228;2023-02-14T00:03:52;0.40;99.90
12720;DHT22;6424;48.520;11.228;2023-02-14T00:06:34;0.40;99.90
12720;DHT22;6424;48.520;11.228;2023-02-14T00:09:18;0.40;99.90
12720;DHT22;6424;48.520;11.228;2023-02-14T00:11:44;0.30;99.90
12720;DHT22;6424;48.520;11.228;2023-02-14T00:14:25;0.30;99.90
12720;DHT22;6424;48.520;11.228;2023-02-14T00:17:24;0.30;99.90
12720;DHT22;6424;48.520;11.228;2023-02-14T00:20:05;0.30;99.90
12720;DHT22;6424;48.520;11.228;2023-02-14T00:22:46;0.30;99.90
12720;DHT22;6424;48.520;11.228;2023-02-14T00:25:27;0.30;99.90
12720;DHT22;6424;48.520;11.228;2023-02-14T00:28:08;0.30;99.90
12720;DHT22;6424;48.520;11.228;2023-02-14T00:30:49;0.30;99.90
12720;DHT22;6424;48.520;11.228;2023-02-14T00:33:29;0.30;99.90
12720;DHT22;6424;48.520;11.228;2023-02-14T00:36:11;0.20;99.90
12720;DHT22;6424;48.520;11.228;2023-02-14T00:38:52;0.20;99.90
12720;DHT22;6424;48.520;11.228;2023-02-14T00:41:33;0.20;99.90
12720;DHT22;6424;48.520;11.228;2023-02-14T00:44:14;0.20;99.90
12720;DHT22;6424;48.520;11.228;2023-02-14T00:46:55;0.20;99.90
12720;DHT22;6424;48.520;11.228;2023-02-14T00:49:36;0.10;99.90
12720;DHT22;6424;48.520;11.228;2023-02-14T00:52:01;0.10;99.90
12720;DHT22;6424;48.520;11.228;2023-02-14T00:54:42;0.10;99.90
12720;DHT22;6424;48.520;11.228;2023-02-14T00:57:23;0.00;99.90
12720;DHT22;6424;48.520;11.228;2023-02-14T01:00:04;0.10;99.90
12720;DHT22;6424;48.520;11.228;2023-02-14T01:02:45;0.10;99.90
12720;DHT22;6424;48.520;11.228;2023-02-14T01:05:26;0.10;99.90
12720;DHT22;6424;48.520;11.228;2023-02-14T01:08:07;0.00;99.90
12720;DHT22;6424;48.520;11.228;2023-02-14T01:10:48;0.10;99.90
12720;DHT22;6424;48.520;11.228;2023-02-14T01:13:28;0.00;99.90
12720;DHT22;6424;48.520;11.228;2023-02-14T01:16:12;0.00;99.90
12720;DHT22;6424;48.520;11.228;2023-02-14T01:18:54;0.00;99.90
12720;DHT22;6424;48.520;11.228;2023-02-14T01:21:35;0.00;99.90
12720;DHT22;6424;48.520;11.228;2023-02-14T01:24:15;0.00;99.90
12720;DHT22;6424;48.520;11.228;2023-02-14T01:26:56;0.00;99.90
12720;DHT22;6424;48.520;11.228;2023-02-14T01:29:37;0.00;99.90
12720;DHT22;6424;48.520;11.228;2023-02-14T01:32:18;0.00;99.90
12720;DHT22;6424;48.520;11.228;2023-02-14T01:34:44;0.00;99.90
12720;DHT22;6424;48.520;11.228;2023-02-14T01:37:25;0.00;99.90
12720;DHT22;6424;48.520;11.228;2023-02-14T01:40:07;0.00;99.90
12720;DHT22;6424;48.520;11.228;2023-02-14T01:42:49;0.00;99.90
12720;DHT22;6424;48.520;11.228;2023-02-14T01:45:29;-0.10;99.90
12720;DHT22;6424;48.520;11.228;2023-02-14T01:48:11;-0.10;99.90
12720;DHT22;6424;48.520;11.228;2023-02-14T01:50:53;-0.10;99.90
12720;DHT22;6424;48.520;11.228;2023-02-14T01:53:34;-0.10;99.90
12720;DHT22;6424;48.520;11.228;2023-02-14T01:56:19;-0.20;99.90
12720;DHT22;6424;48.520;11.228;2023-02-14T01:59:02;-0.20;99.90
12720;DHT22;6424;48.520;11.228;2023-02-14T02:01:45;-0.20;99.90
12720;DHT22;6424;48.520;11.228;2023-02-14T02:04:37;-0.10;99.90
12720;DHT22;6424;48.520;11.228;2023-02-14T02:07:23;-0.10;99.90
12720;DHT22;6424;48.520;11.228;2023-02-14T02:10:06;-0.10;99.90
12720;DHT22;6424;48.520;11.228;2023-02-14T02:12:50;-0.10;99.90
12720;DHT22;6424;48.520;11.228;2023-02-14T02:15:17;-0.10;99.90
12720;DHT22;6424;48.520;11.228;2023-02-14T02:38:27;-0.10;99.90
12720;DHT22;6424;48.520;11.228;2023-02-14T02:41:22;-0.10;99.90
12720;DHT22;6424;48.520;11.228;2023-02-14T02:44:15;-0.10;99.90
12720;DHT22;6424;48.520;11.228;2023-02-14T02:50:04;-0.10;99.90
12720;DHT22;6424;48.520;11.228;2023-02-14T02:53:28;-0.10;99.90
12720;DHT22;6424;48.520;11.228;2023-02-14T02:59:21;-0.10;99.90
12720;DHT22;6424;48.520;11.228;2023-02-14T03:02:10;-0.10;99.90
12720;DHT22;6424;48.520;11.228;2023-02-14T03:04:57;-0.10;99.90
12720;DHT22;6424;48.520;11.228;2023-02-14T03:07:40;-0.20;99.90
12720;DHT22;6424;48.520;11.228;2023-02-14T03:10:27;-0.20;99.90
12720;DHT22;6424;48.520;11.228;2023-02-14T03:13:29;-0.30;99.90
12720;DHT22;6424;48.520;11.228;2023-02-14T03:16:24;-0.20;99.90
12720;DHT22;6424;48.520;11.228;2023-02-14T03:21:58;-0.40;99.90
12720;DHT22;6424;48.520;11.228;2023-02-14T03:27:52;-0.50;99.90
12720;DHT22;6424;48.520;11.228;2023-02-14T03:30:40;-0.40;99.90
12720;DHT22;6424;48.520;11.228;2023-02-14T03:39:43;-0.50;99.90
12720;DHT22;6424;48.520;11.228;2023-02-14T03:42:39;-0.40;99.90
12720;DHT22;6424;48.520;11.228;2023-02-14T03:45:39;-0.40;99.90
12720;DHT22;6424;48.520;11.228;2023-02-14T03:48:23;-0.40;99.90
12720;DHT22;6424;48.520;11.228;2023-02-14T03:51:09;-0.50;99.90
12720;DHT22;6424;48.520;11.228;2023-02-14T03:53:55;-0.40;99.90
12720;DHT22;6424;48.520;11.228;2023-02-14T03:56:47;-0.50;99.90
12720;DHT22;6424;48.520;11.228;2023-02-14T03:59:29;-0.50;99.90
12720;DHT22;6424;48.520;11.228;2023-02-14T04:02:18;-0.60;99.90
12720;DHT22;6424;48.520;11.228;2023-02-14T04:05:02;-0.60;99.90
12720;DHT22;6424;48.520;11.228;2023-02-14T04:07:50;-0.60;99.90
12720;DHT22;6424;48.520;11.228;2023-02-14T04:10:32;-0.60;99.90
12720;DHT22;6424;48.520;11.228;2023-02-14T04:13:13;-0.60;99.90
12720;DHT22;6424;48.520;11.228;2023-02-14T04:15:54;-0.60;99.90
12720;DHT22;6424;48.520;11.228;2023-02-14T04:18:35;-0.50;99.90
12720;DHT22;6424;48.520;11.228;2023-02-14T04:21:19;-0.60;99.90
12720;DHT22;6424;48.520;11.228;2023-02-14T04:24:00;-0.60;99.90
12720;DHT22;6424;48.520;11.228;2023-02-14T04:26:40;-0.60;99.90
12720;DHT22;6424;48.520;11.228;2023-02-14T04:29:33;-0.70;99.90
12720;DHT22;6424;48.520;11.228;2023-02-14T04:31:59;-0.80;99.90
12720;DHT22;6424;48.520;11.228;2023-02-14T04:34:40;-0.80;99.90
12720;DHT22;6424;48.520;11.228;2023-02-14T04:37:20;-0.80;99.90
12720;DHT22;6424;48.520;11.228;2023-02-14T04:39:46;-0.70;99.90
12720;DHT22;6424;48.520;11.228;2023-02-14T04:42:27;-0.70;99.90
12720;DHT22;6424;48.520;11.228;2023-02-14T04:45:08;-0.70;99.90
12720;DHT22;6424;48.520;11.228;2023-02-14T04:47:49;-0.70;99.90
12720;DHT22;6424;48.520;11.228;2023-02-14T04:50:15;-0.70;99.90
12720;DHT22;6424;48.520;11.228;2023-02-14T04:52:55;-0.70;99.90
12720;DHT22;6424;48.520;11.228;2023-02-14T04:55:21;-0.70;99.90
12720;DHT22;6424;48.520;11.228;2023-02-14T04:57:47;-0.70;99.90
12720;DHT22;6424;48.520;11.228;2023-02-14T05:00:27;-0.70;99.90
12720;DHT22;6424;48.520;11.228;2023-02-14T05:03:08;-0.70;99.90
12720;DHT22;6424;48.520;11.228;2023-02-14T05:05:34;-0.70;99.90
12720;DHT22;6424;48.520;11.228;2023-02-14T05:08:15;-0.70;99.90
12720;DHT22;6424;48.520;11.228;2023-02-14T05:10:56;-0.70;99.90
12720;DHT22;6424;48.520;11.228;2023-02-14T05:13:37;-0.70;99.90
12720;DHT22;6424;48.520;11.228;2023-02-14T05:16:17;-0.70;99.90
12720;DHT22;6424;48.520;11.228;2023-02-14T05:18:58;-0.70;99.90
12720;DHT22;6424;48.520;11.228;2023-02-14T05:21:39;-0.70;99.90
12720;DHT22;6424;48.520;11.228;2023-02-14T05:24:20;-0.80;99.90
12720;DHT22;6424;48.520;11.228;2023-02-14T05:27:01;-0.80;99.90
12720;DHT22;6424;48.520;11.228;2023-02-14T05:29:41;-0.80;99.90
12720;DHT22;6424;48.520;11.228;2023-02-14T05:32:22;-0.80;99.90
12720;DHT22;6424;48.520;11.228;2023-02-14T05:35:03;-0.80;99.90
12720;DHT22;6424;48.520;11.228;2023-02-14T05:37:44;-0.80;99.90
12720;DHT22;6424;48.520;11.228;2023-02-14T05:40:25;-0.90;99.90
12720;DHT22;6424;48.520;11.228;2023-02-14T05:42:52;-0.90;99.90
12720;DHT22;6424;48.520;11.228;2023-02-14T05:45:33;-0.90;99.90
12720;DHT22;6424;48.520;11.228;2023-02-14T05:48:14;-0.90;99.90
12720;DHT22;6424;48.520;11.228;2023-02-14T05:50:40;-0.90;99.90
12720;DHT22;6424;48.520;11.228;2023-02-14T05:53:22;-0.90;99.90
12720;DHT22;6424;48.520;11.228;2023-02-14T05:56:03;-0.90;99.90
12720;DHT22;6424;48.520;11.228;2023-02-14T05:58:43;-0.90;99.90
12720;DHT22;6424;48.520;11.228;2023-02-14T06:01:24;-0.90;99.90
12720;DHT22;6424;48.520;11.228;2023-02-14T06:04:05;-0.90;99.90
12720;DHT22;6424;48.520;11.228;2023-02-14T06:06:46;-0.90;99.90
12720;DHT22;6424;48.520;11.228;2023-02-14T06:09:11;-0.90;99.90
12720;DHT22;6424;48.520;11.228;2023-02-14T06:11:37;-1.00;99.90
12720;DHT22;6424;48.520;11.228;2023-02-14T06:14:18;-1.00;99.90
12720;DHT22;6424;48.520;11.228;2023-02-14T06:16:59;-1.00;99.90
12720;DHT22;6424;48.520;11.228;2023-02-14T06:19:40;-1.00;99.90
12720;DHT22;6424;48.520;11.228;2023-02-14T06:22:21;-1.10;99.90
12720;DHT22;6424;48.520;11.228;2023-02-14T06:25:03;-1.10;99.90
12720;DHT22;6424;48.520;11.228;2023-02-14T06:27:44;-1.10;99.90
12720;DHT22;6424;48.520;11.228;2023-02-14T06:30:26;-1.10;99.90
12720;DHT22;6424;48.520;11.228;2023-02-14T06:33:07;-1.10;99.90
12720;DHT22;6424;48.520;11.228;2023-02-14T06:35:48;-1.10;99.90
12720;DHT22;6424;48.520;11.228;2023-02-14T06:38:29;-1.10;99.90
12720;DHT22;6424;48.520;11.228;2023-02-14T06:41:10;-1.10;99.90
12720;DHT22;6424;48.520;11.228;2023-02-14T06:43:37;-1.10;99.90
12720;DHT22;6424;48.520;11.228;2023-02-14T06:46:18;-1.00;99.90
12720;DHT22;6424;48.520;11.228;2023-02-14T06:48:59;-1.00;99.90
12720;DHT22;6424;48.520;11.228;2023-02-14T06:51:40;-0.90;99.90
12720;DHT22;6424;48.520;11.228;2023-02-14T06:54:20;-1.00;99.90
12720;DHT22;6424;48.520;11.228;2023-02-14T06:57:01;-1.00;99.90
12720;DHT22;6424;48.520;11.228;2023-02-14T06:59:42;-1.00;99.90
12720;DHT22;6424;48.520;11.228;2023-02-14T07:02:23;-1.00;99.90
12720;DHT22;6424;48.520;11.228;2023-02-14T07:04:49;-0.90;99.90
12720;DHT22;6424;48.520;11.228;2023-02-14T07:07:29;-0.90;99.90
12720;DHT22;6424;48.520;11.228;2023-02-14T07:10:11;-1.00;99.90
12720;DHT22;6424;48.520;11.228;2023-02-14T07:12:52;-0.90;99.90
12720;DHT22;6424;48.520;11.228;2023-02-14T07:15:32;-1.00;99.90
12720;DHT22;6424;48.520;11.228;2023-02-14T07:18:13;-1.00;99.90
12720;DHT22;6424;48.520;11.228;2023-02-14T07:20:54;-1.00;99.90
12720;DHT22;6424;48.520;11.228;2023-02-14T07:23:36;-1.00;99.90
12720;DHT22;6424;48.520;11.228;2023-02-14T07:26:16;-1.10;99.90
12720;DHT22;6424;48.520;11.228;2023-02-14T07:28:57;-1.00;99.90
12720;DHT22;6424;48.520;11.228;2023-02-14T07:31:38;-1.00;99.90
12720;DHT22;6424;48.520;11.228;2023-02-14T07:34:19;-1.10;99.90
12720;DHT22;6424;48.520;11.228;2023-02-14T07:37:00;-1.10;99.90
12720;DHT22;6424;48.520;11.228;2023-02-14T07:39:41;-1.10;99.90
12720;DHT22;6424;48.520;11.228;2023-02-14T07:42:22;-1.10;99.90
12720;DHT22;6424;48.520;11.228;2023-02-14T07:45:03;-1.00;99.90
12720;DHT22;6424;48.520;11.228;2023-02-14T07:47:47;-1.00;99.90
12720;DHT22;6424;48.520;11.228;2023-02-14T07:50:28;-0.90;99.90
12720;DHT22;6424;48.520;11.228;2023-02-14T07:53:09;-0.90;99.90
12720;DHT22;6424;48.520;11.228;2023-02-14T07:55:51;-0.80;99.90
12720;DHT22;6424;48.520;11.228;2023-02-14T07:58:32;-0.80;99.90
12720;DHT22;6424;48.520;11.228;2023-02-14T08:01:13;-0.80;99.90
12720;DHT22;6424;48.520;11.228;2023-02-14T08:03:53;-0.80;99.90
12720;DHT22;6424;48.520;11.228;2023-02-14T08:06:34;-0.80;99.90
12720;DHT22;6424;48.520;11.228;2023-02-14T08:09:15;-0.80;99.90
12720;DHT22;6424;48.520;11.228;2023-02-14T08:12:04;-0.80;99.90
12720;DHT22;6424;48.520;11.228;2023-02-14T08:15:04;-0.90;99.90
12720;DHT22;6424;48.520;11.228;2023-02-14T08:18:05;-0.80;99.90
12720;DHT22;6424;48.520;11.228;2023-02-14T08:20:46;-0.80;99.90
12720;DHT22;6424;48.520;11.228;2023-02-14T08:23:30;-0.80;99.90
12720;DHT22;6424;48.520;11.228;2023-02-14T08:26:11;-0.80;99.90
12720;DHT22;6424;48.520;11.228;2023-02-14T08:28:37;-0.80;99.90
12720;DHT22;6424;48.520;11.228;2023-02-14T08:31:26;-0.70;99.90
12720;DHT22;6424;48.520;11.228;2023-02-14T08:34:08;-0.70;99.90
12720;DHT22;6424;48.520;11.228;2023-02-14T08:36:49;-0.70;99.90
12720;DHT22;6424;48.520;11.228;2023-02-14T08:39:31;-0.60;99.90
12720;DHT22;6424;48.520;11.228;2023-02-14T08:42:12;-0.60;99.90
12720;DHT22;6424;48.520;11.228;2023-02-14T08:44:53;-0.60;99.90
12720;DHT22;6424;48.520;11.228;2023-02-14T08:47:35;-0.60;99.90
12720;DHT22;6424;48.520;11.228;2023-02-14T08:50:18;-0.50;99.90
12720;DHT22;6424;48.520;11.228;2023-02-14T08:52:59;-0.50;99.90
12720;DHT22;6424;48.520;11.228;2023-02-14T08:55:40;-0.40;99.90
12720;DHT22;6424;48.520;11.228;2023-02-14T08:58:21;-0.40;99.90
12720;DHT22;6424;48.520;11.228;2023-02-14T09:01:10;-0.40;99.90
12720;DHT22;6424;48.520;11.228;2023-02-14T09:03:51;-0.40;99.90
12720;DHT22;6424;48.520;11.228;2023-02-14T09:06:32;-0.30;99.90
12720;DHT22;6424;48.520;11.228;2023-02-14T09:09:16;-0.30;99.90
12720;DHT22;6424;48.520;11.228;2023-02-14T09:11:58;-0.30;99.90
12720;DHT22;6424;48.520;11.228;2023-02-14T09:14:43;-0.30;99.90
12720;DHT22;6424;48.520;11.228;2023-02-14T09:17:24;-0.30;99.90
12720;DHT22;6424;48.520;11.228;2023-02-14T09:20:07;-0.20;99.90
12720;DHT22;6424;48.520;11.228;2023-02-14T09:22:48;-0.10;99.90
12720;DHT22;6424;48.520;11.228;2023-02-14T09:25:29;-0.10;99.90
12720;DHT22;6424;48.520;11.228;2023-02-14T09:28:09;0.00;99.90
12720;DHT22;6424;48.520;11.228;2023-02-14T09:30:50;0.00;99.90
12720;DHT22;6424;48.520;11.228;2023-02-14T09:33:31;0.00;99.90
12720;DHT22;6424;48.520;11.228;2023-02-14T09:36:12;0.10;99.90
12720;DHT22;6424;48.520;11.228;2023-02-14T09:38:46;0.10;99.90
12720;DHT22;6424;48.520;11.228;2023-02-14T09:47:27;0.10;99.90
12720;DHT22;6424;48.520;11.228;2023-02-14T09:53:30;0.20;99.90
12720;DHT22;6424;48.520;11.228;2023-02-14T10:05:30;0.40;99.90
12720;DHT22;6424;48.520;11.228;2023-02-14T10:08:51;0.40;99.90
12720;DHT22;6424;48.520;11.228;2023-02-14T10:11:35;0.40;99.90
12720;DHT22;6424;48.520;11.228;2023-02-14T10:14:25;0.40;99.90
12720;DHT22;6424;48.520;11.228;2023-02-14T10:17:09;0.40;99.90
12720;DHT22;6424;48.520;11.228;2023-02-14T10:19:56;0.40;99.90
12720;DHT22;6424;48.520;11.228;2023-02-14T10:22:42;0.50;99.90
12720;DHT22;6424;48.520;11.228;2023-02-14T10:25:24;0.60;99.90
12720;DHT22;6424;48.520;11.228;2023-02-14T10:28:08;0.60;99.90
12720;DHT22;6424;48.520;11.228;2023-02-14T10:31:04;0.70;99.90
12720;DHT22;6424;48.520;11.228;2023-02-14T10:34:02;0.80;99.90
12720;DHT22;6424;48.520;11.228;2023-02-14T10:40:42;0.80;99.90
12720;DHT22;6424;48.520;11.228;2023-02-14T10:46:33;0.70;99.90
12720;DHT22;6424;48.520;11.228;2023-02-14T10:49:45;0.80;99.90
12720;DHT22;6424;48.520;11.228;2023-02-14T10:58:21;1.00;99.90
12720;DHT22;6424;48.520;11.228;2023-02-14T11:01:11;1.00;99.90
12720;DHT22;6424;48.520;11.228;2023-02-14T11:03:57;1.00;99.90
12720;DHT22;6424;48.520;11.228;2023-02-14T11:06:33;1.00;99.90
12720;DHT22;6424;48.520;11.228;2023-02-14T11:09:15;1.00;99.90
12720;DHT22;6424;48.520;11.228;2023-02-14T11:11:58;0.90;99.90
12720;DHT22;6424;48.520;11.228;2023-02-14T11:14:39;1.00;99.90
12720;DHT22;6424;48.520;11.228;2023-02-14T11:17:28;1.00;99.90
12720;DHT22;6424;48.520;11.228;2023-02-14T11:20:25;1.10;99.90
12720;DHT22;6424;48.520;11.228;2023-02-14T11:23:20;1.00;99.90
12720;DHT22;6424;48.520;11.228;2023-02-14T11:26:02;1.10;99.90
12720;DHT22;6424;48.520;11.228;2023-02-14T11:28:54;1.10;99.90
12720;DHT22;6424;48.520;11.228;2023-02-14T11:31:37;1.10;99.90
12720;DHT22;6424;48.520;11.228;2023-02-14T11:34:37;1.10;99.90
12720;DHT22;6424;48.520;11.228;2023-02-14T11:37:32;1.20;99.90
12720;DHT22;6424;48.520;11.228;2023-02-14T11:46:07;1.50;99.90
12720;DHT22;6424;48.520;11.228;2023-02-14T11:49:06;1.60;99.90
12720;DHT22;6424;48.520;11.228;2023-02-14T11:51:48;1.70;99.90
12720;DHT22;6424;48.520;11.228;2023-02-14T11:54:39;1.70;99.90
12720;DHT22;6424;48.520;11.228;2023-02-14T11:57:33;1.80;99.90
12720;DHT22;6424;48.520;11.228;2023-02-14T12:00:18;1.80;99.90
12720;DHT22;6424;48.520;11.228;2023-02-14T12:03:02;1.90;99.90
12720;DHT22;6424;48.520;11.228;2023-02-14T12:05:45;1.90;99.90
12720;DHT22;6424;48.520;11.228;2023-02-14T12:08:30;2.00;99.90
12720;DHT22;6424;48.520;11.228;2023-02-14T12:11:10;2.00;99.90
12720;DHT22;6424;48.520;11.228;2023-02-14T12:13:57;2.00;99.90
12720;DHT22;6424;48.520;11.228;2023-02-14T12:16:45;2.20;99.90
12720;DHT22;6424;48.520;11.228;2023-02-14T12:22:40;2.30;99.90
12720;DHT22;6424;48.520;11.228;2023-02-14T12:25:45;2.30;99.90
12720;DHT22;6424;48.520;11.228;2023-02-14T12:28:40;2.40;99.90
12720;DHT22;6424;48.520;11.228;2023-02-14T12:31:23;2.30;99.90
12720;DHT22;6424;48.520;11.228;2023-02-14T12:34:04;2.20;99.90
12720;DHT22;6424;48.520;11.228;2023-02-14T12:36:48;2.20;99.90
12720;DHT22;6424;48.520;11.228;2023-02-14T12:51:31;2.40;99.90
12720;DHT22;6424;48.520;11.228;2023-02-14T12:57:44;2.40;99.90
12720;DHT22;6424;48.520;11.228;2023-02-14T13:20:53;2.50;99.90
12720;DHT22;6424;48.520;11.228;2023-02-14T13:23:45;2.60;99.90
12720;DHT22;6424;48.520;11.228;2023-02-14T13:29:03;2.60;99.90
12720;DHT22;6424;48.520;11.228;2023-02-14T13:31:45;2.70;99.90
12720;DHT22;6424;48.520;11.228;2023-02-14T13:34:34;2.60;99.90
12720;DHT22;6424;48.520;11.228;2023-02-14T13:37:19;2.50;99.90
12720;DHT22;6424;48.520;11.228;2023-02-14T13:40:15;2.50;99.90
12720;DHT22;6424;48.520;11.228;2023-02-14T13:42:58;2.40;99.90
12720;DHT22;6424;48.520;11.228;2023-02-14T13:48:25;2.40;99.90
12720;DHT22;6424;48.520;11.228;2023-02-14T13:51:07;2.40;99.90
12720;DHT22;6424;48.520;11.228;2023-02-14T13:53:48;2.30;99.90
12720;DHT22;6424;48.520;11.228;2023-02-14T13:56:32;2.30;99.90
12720;DHT22;6424;48.520;11.228;2023-02-14T13:59:29;2.40;99.90
12720;DHT22;6424;48.520;11.228;2023-02-14T14:02:30;2.50;99.90
12720;DHT22;6424;48.520;11.228;2023-02-14T14:14:35;2.60;99.90
12720;DHT22;6424;48.520;11.228;2023-02-14T14:17:03;2.50;99.90
12720;DHT22;6424;48.520;11.228;2023-02-14T14:19:45;2.50;99.90
12720;DHT22;6424;48.520;11.228;2023-02-14T14:22:27;2.50;99.90
12720;DHT22;6424;48.520;11.228;2023-02-14T14:25:09;2.50;99.90
12720;DHT22;6424;48.520;11.228;2023-02-14T14:27:50;2.60;99.90
12720;DHT22;6424;48.520;11.228;2023-02-14T14:30:31;2.50;99.90
12720;DHT22;6424;48.520;11.228;2023-02-14T14:33:25;2.60;99.90
12720;DHT22;6424;48.520;11.228;2023-02-14T14:36:07;2.50;99.90
12720;DHT22;6424;48.520;11.228;2023-02-14T14:38:51;2.50;99.90
12720;DHT22;6424;48.520;11.228;2023-02-14T14:41:33;2.60;99.90
12720;DHT22;6424;48.520;11.228;2023-02-14T14:44:14;2.60;99.90
12720;DHT22;6424;48.520;11.228;2023-02-14T14:46:58;2.70;99.90
12720;DHT22;6424;48.520;11.228;2023-02-14T14:49:39;2.70;99.90
12720;DHT22;6424;48.520;11.228;2023-02-14T14:52:33;2.60;99.90
12720;DHT22;6424;48.520;11.228;2023-02-14T14:55:27;2.60;99.90
12720;DHT22;6424;48.520;11.228;2023-02-14T15:01:36;2.60;99.90
12720;DHT22;6424;48.520;11.228;2023-02-14T15:04:28;2.60;99.90
12720;DHT22;6424;48.520;11.228;2023-02-14T15:06:55;2.50;99.90
12720;DHT22;6424;48.520;11.228;2023-02-14T15:09:36;2.40;99.90
12720;DHT22;6424;48.520;11.228;2023-02-14T15:12:22;2.30;99.90
12720;DHT22;6424;48.520;11.228;2023-02-14T15:15:21;2.20;99.90
12720;DHT22;6424;48.520;11.228;2023-02-14T15:18:06;2.20;99.90
12720;DHT22;6424;48.520;11.228;2023-02-14T15:20:48;2.10;99.90
12720;DHT22;6424;48.520;11.228;2023-02-14T15:23:30;2.10;99.90
12720;DHT22;6424;48.520;11.228;2023-02-14T15:26:24;2.20;99.90
12720;DHT22;6424;48.520;11.228;2023-02-14T15:29:06;2.20;99.90
12720;DHT22;6424;48.520;11.228;2023-02-14T15:31:47;2.20;99.90
12720;DHT22;6424;48.520;11.228;2023-02-14T15:34:34;2.10;99.90
12720;DHT22;6424;48.520;11.228;2023-02-14T15:37:03;2.10;99.90
12720;DHT22;6424;48.520;11.228;2023-02-14T15:39:48;2.00;99.90
12720;DHT22;6424;48.520;11.228;2023-02-14T15:42:38;2.00;99.90
12720;DHT22;6424;48.520;11.228;2023-02-14T15:50:56;1.80;99.90
12720;DHT22;6424;48.520;11.228;2023-02-14T15:56:56;1.70;99.90
12720;DHT22;6424;48.520;11.228;2023-02-14T15:59:40;1.70;99.90
12720;DHT22;6424;48.520;11.228;2023-02-14T16:02:36;1.70;99.90
12720;DHT22;6424;48.520;11.228;2023-02-14T16:05:20;1.70;99.90
12720;DHT22;6424;48.520;11.228;2023-02-14T16:08:18;1.70;99.90
12720;DHT22;6424;48.520;11.228;2023-02-14T16:13:44;1.70;99.90
12720;DHT22;6424;48.520;11.228;2023-02-14T16:17:02;1.60;99.90
12720;DHT22;6424;48.520;11.228;2023-02-14T16:19:44;1.50;99.90
12720;DHT22;6424;48.520;11.228;2023-02-14T16:22:27;1.50;99.90
12720;DHT22;6424;48.520;11.228;2023-02-14T16:25:11;1.40;99.90
12720;DHT22;6424;48.520;11.228;2023-02-14T16:27:52;1.40;99.90
12720;DHT22;6424;48.520;11.228;2023-02-14T16:30:34;1.40;99.90
12720;DHT22;6424;48.520;11.228;2023-02-14T16:33:20;1.30;99.90
12720;DHT22;6424;48.520;11.228;2023-02-14T16:36:29;1.40;99.90
12720;DHT22;6424;48.520;11.228;2023-02-14T16:39:31;1.40;99.90
12720;DHT22;6424;48.520;11.228;2023-02-14T16:42:14;1.40;99.90
12720;DHT22;6424;48.520;11.228;2023-02-14T16:44:59;1.30;99.90
12720;DHT22;6424;48.520;11.228;2023-02-14T16:47:24;1.30;99.90
12720;DHT22;6424;48.520;11.228;2023-02-14T16:50:07;1.30;99.90
12720;DHT22;6424;48.520;11.228;2023-02-14T16:52:50;1.30;99.90
12720;DHT22;6424;48.520;11.228;2023-02-14T16:55:31;1.30;99.90
12720;DHT22;6424;48.520;11.228;2023-02-14T16:58:13;1.20;99.90
12720;DHT22;6424;48.520;11.228;2023-02-14T17:00:54;1.20;99.90
12720;DHT22;6424;48.520;11.228;2023-02-14T17:03:35;1.10;99.90
12720;DHT22;6424;48.520;11.228;2023-02-14T17:06:20;1.10;99.90
12720;DHT22;6424;48.520;11.228;2023-02-14T17:08:50;1.10;99.90
12720;DHT22;6424;48.520;11.228;2023-02-14T17:11:33;1.10;99.90
12720;DHT22;6424;48.520;11.228;2023-02-14T17:13:59;1.10;99.90
12720;DHT22;6424;48.520;11.228;2023-02-14T17:16:41;1.10;99.90
12720;DHT22;6424;48.520;11.228;2023-02-14T17:19:22;1.00;99.90
12720;DHT22;6424;48.520;11.228;2023-02-14T17:22:04;1.00;99.90
12720;DHT22;6424;48.520;11.228;2023-02-14T17:24:45;0.90;99.90
12720;DHT22;6424;48.520;11.228;2023-02-14T17:27:26;0.90;99.90
12720;DHT22;6424;48.520;11.228;2023-02-14T17:30:07;0.80;99.90
12720;DHT22;6424;48.520;11.228;2023-02-14T17:32:48;0.80;99.90
12720;DHT22;6424;48.520;11.228;2023-02-14T17:35:35;0.80;99.90
12720;DHT22;6424;48.520;11.228;2023-02-14T17:38:16;0.80;99.90
12720;DHT22;6424;48.520;11.228;2023-02-14T17:40:58;0.80;99.90
12720;DHT22;6424;48.520;11.228;2023-02-14T17:43:38;0.80;99.90
12720;DHT22;6424;48.520;11.228;2023-02-14T17:46:20;0.80;99.90
12720;DHT22;6424;48.520;11.228;2023-02-14T17:49:01;0.80;99.90
12720;DHT22;6424;48.520;11.228;2023-02-14T17:51:42;0.80;99.90
12720;DHT22;6424;48.520;11.228;2023-02-14T17:54:23;0.70;99.90
12720;DHT22;6424;48.520;11.228;2023-02-14T17:56:49;0.70;99.90
12720;DHT22;6424;48.520;11.228;2023-02-14T17:59:30;0.70;99.90
12720;DHT22;6424;48.520;11.228;2023-02-14T18:02:12;0.70;99.90
12720;DHT22;6424;48.520;11.228;2023-02-14T18:04:53;0.70;99.90
12720;DHT22;6424;48.520;11.228;2023-02-14T18:07:34;0.70;99.90
12720;DHT22;6424;48.520;11.228;2023-02-14T18:10:00;0.70;99.90
12720;DHT22;6424;48.520;11.228;2023-02-14T18:12:41;0.60;99.90
12720;DHT22;6424;48.520;11.228;2023-02-14T18:15:22;0.60;99.90
12720;DHT22;6424;48.520;11.228;2023-02-14T18:18:02;0.60;99.90
12720;DHT22;6424;48.520;11.228;2023-02-14T18:21:00;0.60;99.90
12720;DHT22;6424;48.520;11.228;2023-02-14T18:23:42;0.60;99.90
12720;DHT22;6424;48.520;11.228;2023-02-14T18:26:22;0.60;99.90
12720;DHT22;6424;48.520;11.228;2023-02-14T18:29:04;0.60;99.90
12720;DHT22;6424;48.520;11.228;2023-02-14T18:31:46;0.60;99.90
12720;DHT22;6424;48.520;11.228;2023-02-14T18:34:26;0.50;99.90
12720;DHT22;6424;48.520;11.228;2023-02-14T18:37:10;0.40;99.90
12720;DHT22;6424;48.520;11.228;2023-02-14T18:39:51;0.40;99.90
12720;DHT22;6424;48.520;11.228;2023-02-14T18:42:32;0.30;99.90
12720;DHT22;6424;48.520;11.228;2023-02-14T18:45:13;0.20;99.90
12720;DHT22;6424;48.520;11.228;2023-02-14T18:47:54;0.20;99.90
12720;DHT22;6424;48.520;11.228;2023-02-14T18:50:35;0.30;99.90
12720;DHT22;6424;48.520;11.228;2023-02-14T18:53:15;0.20;99.90
12720;DHT22;6424;48.520;11.228;2023-02-14T18:55:56;0.20;99.90
12720;DHT22;6424;48.520;11.228;2023-02-14T18:58:38;0.20;99.90
12720;DHT22;6424;48.520;11.228;2023-02-14T19:01:22;0.20;99.90
12720;DHT22;6424;48.520;11.228;2023-02-14T19:04:04;0.10;99.90
12720;DHT22;6424;48.520;11.228;2023-02-14T19:06:47;0.10;99.90
12720;DHT22;6424;48.520;11.228;2023-02-14T19:09:28;0.10;99.90
12720;DHT22;6424;48.520;11.228;2023-02-14T19:12:10;0.10;99.90
12720;DHT22;6424;48.520;11.228;2023-02-14T19:14:52;0.00;99.90
12720;DHT22;6424;48.520;11.228;2023-02-14T19:17:33;0.00;99.90
12720;DHT22;6424;48.520;11.228;2023-02-14T19:20:14;0.00;99.90
12720;DHT22;6424;48.520;11.228;2023-02-14T19:22:55;0.00;99.90
12720;DHT22;6424;48.520;11.228;2023-02-14T19:25:36;0.00;99.90
12720;DHT22;6424;48.520;11.228;2023-02-14T19:28:03;-0.10;99.90
12720;DHT22;6424;48.520;11.228;2023-02-14T19:30:45;-0.10;99.90
12720;DHT22;6424;48.520;11.228;2023-02-14T19:33:26;-0.10;99.90
12720;DHT22;6424;48.520;11.228;2023-02-14T19:36:09;-0.20;99.90
12720;DHT22;6424;48.520;11.228;2023-02-14T19:38:52;-0.20;99.90
12720;DHT22;6424;48.520;11.228;2023-02-14T19:41:25;-0.20;99.90
12720;DHT22;6424;48.520;11.228;2023-02-14T19:44:07;-0.20;99.90